Birmingham, AL

12:45 PM CDT en Septiembre 18, 2014 (GMT -0500)
Central Business District | Change Station
CLOSE
Current Station
Estación meteorológica personal
Location: Birmingham, AL
Altura: 636 ft
Estaciones meteorológicas cercanas

Alt 636 ft 33.52 °N, 86.81 °W | Updated 6 seconds ago

Muy nublado
Muy nublado
86.4 ° F
Sensación térmica 87 ° F
N
0.0
Viento Variable Viento desde Norte
Gusts 0.0 mph

Hoy
Alta -- | Baja -- ° F
--% Posibilidad de precipitaciones
Ayer
Alta -- | Baja -- ° F
Precip. -- pul
6:32 AM 6:49 PM
Creciente menguante, 25% visible
Presión 30.00 pul
Visibilidad 10.0 Millas
Nubes Muy nublado 25000 ft
Índice de calor 87 ° F
Punto de rocío 61 ° F
Humedad 43%
Precipitaciones 0.00 pul
Espesor de la nieve No disponible.
UV 5 de una escala de 12
Polen 8.40 de una escala de 12
Ozono Buena
PM2.5 Moderada
Flu Activity No disponible.
METAR KBHM 181653Z 04004KT 10SM BKN250 24/13 A3002 RMK AO2 SLP157 T02440133

More Conditions Fewer Conditions

Presión 30.00 pul
Visibilidad 10.0 Millas
Nubes Muy nublado 25000 ft
Índice de calor 87 ° F
Punto de rocío 61 ° F
Humedad 43%
Precipitaciones 0.00 pul
Espesor de la nieve No disponible.
UV 5 de una escala de 12
Polen 8.40 de una escala de 12
Ozono Buena
PM2.5 Moderada
Flu Activity No disponible.
METAR KBHM 181653Z 04004KT 10SM BKN250 24/13 A3002 RMK AO2 SLP157 T02440133

More Conditions Fewer Conditions

10-Day Weather Forecast

Almanac

Astronomía

Sep. 18, 2014 Salida Puesta
Hora real 6:32 AM CDT 6:49 PM CDT
Crepúsculo civil 6:07 AM CDT 7:14 PM CDT
Crepúsculo náutico 5:38 AM CDT 7:43 PM CDT
Crepúsculo astronómico 5:09 AM CDT 8:12 PM CDT
Luna 1:35 AM CDT 3:29 PM CDT
Horas de luz 13h 06m
Horas de luz
12h 16m
Tomorrow will be 2m 3s shorter.
Creciente menguante, 25% of the Moon is Illuminated
Hoy
Creciente menguante
Sep 24
Nueva
Oct 1
Cuarto creciente
Oct 8
Luna llena
Oct 15
Cuarto menguante

Extremos de hoy

Máximos del estado Bajos del estado

Community

WunderPhotos

Upload Photos

1,754,409 ¡fotos cargadas!

Nearby

Calidad del aire

  Calidad del aire Índice AQ Contaminante
Ayer Buena
PM10
Ayer Buena
OZONE
Real Moderada
PM2.5
Real Buena
OZONE
Jueves Moderada
PM2.5
Jueves Buena
OZONE

Grosos de nieve

Estación Profundido Altura
No tenemos constancia de nieve nueva.

Actividad de terremotos

Ciudad Distance Mag. Tiempo y dato
No hay informes recientes de la actividad sísmica.
Magnitud mínima muestra es 2,5.

Temperaturas de aguas costeras

Lugar Temperatura
Sin partes meteorológicos de las estaciones

Estaciones meteorológicas cercanas